Time;durP1;ratioP1;P1;durP2;ratioP2;P2;SDS_P1;SDS_P2;PMS_P1;PMS_P2;Temp;Humidity;BMP_temperature;BMP_pressure;BME280_temperature;BME280_humidity;BME280_pressure;Samples;Min_cycle;Max_cycle;Signal;HPM_P1;HPM_P2
2021/01/29 00:02:17;;;;;;;;;;;;;;;;;;5007366;28;19933;-89
2021/01/29 00:04:44;;;;;;;;;;;;;;;;;;5014209;28;19926;-88
2021/01/29 00:07:10;;;;;;;;;;;;;;;;;;5015437;28;20014;-89
2021/01/29 00:09:37;;;;;;;;;;;;;;;;;;5010490;28;19926;-89
2021/01/29 00:12:03;;;;;;;;;;;;;;;;;;5003676;28;19926;-89
2021/01/29 00:14:30;;;;;;;;;;;;;;;;;;5010466;28;19926;-88
2021/01/29 00:16:56;;;;;;;;;;;;;;;;;;5001854;28;19926;-89
2021/01/29 00:19:22;;;;;;;;;;;;;;;;;;5002874;28;20355;-88
2021/01/29 00:21:49;;;;;;;;;;;;;;;;;;5009378;28;19910;-90
2021/01/29 00:24:15;;;;;;;;;;;;;;;;;;5008323;28;20445;-90
2021/01/29 00:26:42;;;;;;;;;;;;;;;;;;5000485;28;20366;-89
2021/01/29 00:29:08;;;;;;;;;;;;;;;;;;5002919;28;19987;-88
2021/01/29 00:31:35;;;;;;;;;;;;;;;;;;5002569;28;20044;-88
2021/01/29 00:34:02;;;;;;;;;;;;;;;;;;5006895;28;19981;-89
2021/01/29 00:36:28;;;;;;;;;;;;;;;;;;5020560;28;20443;-89
2021/01/29 00:38:55;;;;;;;;;;;;;;;;;;5007582;28;19941;-89
2021/01/29 00:41:23;;;;;;;;;;;;;;;;;;5021403;28;19990;-89
2021/01/29 00:43:50;;;;;;;;;;;;;;;;;;5003936;28;20072;-89
2021/01/29 00:46:17;;;;;;;;;;;;;;;;;;5002359;28;20000;-89
2021/01/29 00:48:44;;;;;;;;;;;;;;;;;;5001670;28;19987;-89
2021/01/29 00:51:10;;;;;;;;;;;;;;;;;;5000533;28;19984;-89
2021/01/29 00:53:37;;;;;;;;;;;;;;;;;;5000929;28;19991;-89
2021/01/29 00:56:03;;;;;;;;;;;;;;;;;;5000406;28;20457;-89
2021/01/29 00:58:30;;;;;;;;;;;;;;;;;;5001512;28;19977;-88
2021/01/29 01:00:56;;;;;;;;;;;;;;;;;;5007149;28;19973;-90
2021/01/29 01:03:23;;;;;;;;;;;;;;;;;;5019710;28;20060;-89
2021/01/29 01:05:49;;;;;;;;;;;;;;;;;;5017658;28;20053;-90
2021/01/29 01:08:16;;;;;;;;;;;;;;;;;;5007825;28;20376;-89
2021/01/29 01:10:42;;;;;;;;;;;;;;;;;;5003031;28;20067;-89
2021/01/29 01:13:09;;;;;;;;;;;;;;;;;;5002132;28;19981;-89
2021/01/29 01:15:35;;;;;;;;;;;;;;;;;;5000515;28;20029;-89
2021/01/29 01:18:02;;;;;;;;;;;;;;;;;;5000041;28;19996;-89
2021/01/29 01:20:28;;;;;;;;;;;;;;;;;;4999652;28;19973;-89
2021/01/29 01:22:55;;;;;;;;;;;;;;;;;;4980758;28;19980;-88
2021/01/29 01:25:21;;;;;;;;;;;;;;;;;;4996042;28;20024;-89
2021/01/29 01:27:48;;;;;;;;;;;;;;;;;;4999861;28;19996;-90
2021/01/29 01:30:14;;;;;;;;;;;;;;;;;;4999262;28;19977;-89
2021/01/29 01:32:41;;;;;;;;;;;;;;;;;;5000121;28;20091;-88
2021/01/29 01:35:07;;;;;;;;;;;;;;;;;;4999258;28;20450;-88
2021/01/29 01:37:34;;;;;;;;;;;;;;;;;;4998317;28;20001;-90
2021/01/29 01:40:00;;;;;;;;;;;;;;;;;;4999901;28;20181;-88
2021/01/29 01:42:27;;;;;;;;;;;;;;;;;;4999750;28;20666;-90
2021/01/29 01:44:53;;;;;;;;;;;;;;;;;;4998873;28;19981;-88
2021/01/29 01:47:20;;;;;;;;;;;;;;;;;;4999683;28;20003;-91
2021/01/29 01:49:46;;;;;;;;;;;;;;;;;;4998380;28;19981;-90
2021/01/29 01:52:13;;;;;;;;;;;;;;;;;;4998030;28;19980;-90
2021/01/29 01:54:42;;;;;;;;;;;;;;;;;;4997866;28;19996;-90
2021/01/29 01:57:09;;;;;;;;;;;;;;;;;;4998279;28;20484;-90
2021/01/29 01:59:36;;;;;;;;;;;;;;;;;;5001894;28;19981;-90
2021/01/29 02:02:02;;;;;;;;;;;;;;;;;;5017683;28;20038;-90
2021/01/29 02:04:29;;;;;;;;;;;;;;;;;;5019598;28;19989;-90
2021/01/29 02:06:55;;;;;;;;;;;;;;;;;;5019784;28;19993;-91
2021/01/29 02:09:23;;;;;;;;;;;;;;;;;;5028854;28;19990;-92
2021/01/29 02:11:50;;;;;;;;;;;;;;;;;;5033750;28;20004;-92
2021/01/29 02:14:16;;;;;;;;;;;;;;;;;;5038598;28;19980;-92
2021/01/29 02:16:43;;;;;;;;;;;;;;;;;;5018153;28;20046;-93
2021/01/29 02:19:09;;;;;;;;;;;;;;;;;;5010696;28;19979;-91
2021/01/29 02:21:35;;;;;;;;;;;;;;;;;;4996966;28;19977;-91
2021/01/29 02:24:02;;;;;;;;;;;;;;;;;;4997360;28;19984;-90
2021/01/29 02:26:28;;;;;;;;;;;;;;;;;;5006715;28;19984;-89
2021/01/29 02:28:55;;;;;;;;;;;;;;;;;;5018583;28;19983;-89
2021/01/29 02:31:21;;;;;;;;;;;;;;;;;;4998711;28;19992;-90
2021/01/29 02:33:48;;;;;;;;;;;;;;;;;;4997414;28;19977;-91
2021/01/29 02:36:14;;;;;;;;;;;;;;;;;;4996904;28;20369;-90
2021/01/29 02:38:41;;;;;;;;;;;;;;;;;;4997227;28;19981;-90
2021/01/29 02:41:07;;;;;;;;;;;;;;;;;;4997328;28;19977;-91
2021/01/29 02:43:34;;;;;;;;;;;;;;;;;;4997864;28;20071;-91
2021/01/29 02:46:00;;;;;;;;;;;;;;;;;;5030774;28;20020;-90
2021/01/29 02:48:26;;;;;;;;;;;;;;;;;;4998622;28;19983;-91
2021/01/29 02:50:53;;;;;;;;;;;;;;;;;;4996144;28;20378;-91
2021/01/29 02:53:19;;;;;;;;;;;;;;;;;;4996592;28;19992;-91
2021/01/29 02:55:46;;;;;;;;;;;;;;;;;;5002112;28;19992;-90
2021/01/29 02:58:12;;;;;;;;;;;;;;;;;;4998311;28;20040;-91
2021/01/29 03:00:39;;;;;;;;;;;;;;;;;;4995942;28;20353;-91
2021/01/29 03:03:05;;;;;;;;;;;;;;;;;;5026261;28;19967;-90
2021/01/29 03:05:32;;;;;;;;;;;;;;;;;;5025729;28;20039;-91
2021/01/29 03:07:58;;;;;;;;;;;;;;;;;;5015643;28;20003;-91
2021/01/29 03:10:25;;;;;;;;;;;;;;;;;;5015278;28;20479;-91
2021/01/29 03:12:51;;;;;;;;;;;;;;;;;;5016575;28;19984;-90
2021/01/29 03:15:17;;;;;;;;;;;;;;;;;;5016151;28;19992;-90
2021/01/29 03:17:44;;;;;;;;;;;;;;;;;;5015594;28;20016;-91
2021/01/29 03:20:10;;;;;;;;;;;;;;;;;;5015240;28;20479;-90
2021/01/29 03:22:37;;;;;;;;;;;;;;;;;;5016235;28;20042;-90
2021/01/29 03:25:05;;;;;;;;;;;;;;;;;;5011191;28;20315;-90
2021/01/29 03:27:32;;;;;;;;;;;;;;;;;;4995674;28;19995;-90
2021/01/29 03:29:58;;;;;;;;;;;;;;;;;;4996188;28;19981;-90
2021/01/29 03:32:25;;;;;;;;;;;;;;;;;;4996393;28;20342;-90
2021/01/29 03:34:51;;;;;;;;;;;;;;;;;;4996385;28;20087;-89
2021/01/29 03:37:18;;;;;;;;;;;;;;;;;;4996760;28;19989;-90
2021/01/29 03:39:44;;;;;;;;;;;;;;;;;;4996582;28;19981;-90
2021/01/29 03:42:10;;;;;;;;;;;;;;;;;;4997566;28;20362;-90
2021/01/29 03:44:37;;;;;;;;;;;;;;;;;;4997860;28;20441;-90
2021/01/29 03:47:03;;;;;;;;;;;;;;;;;;4999931;28;20055;-90
2021/01/29 03:49:30;;;;;;;;;;;;;;;;;;5007841;28;19988;-89
2021/01/29 03:51:56;;;;;;;;;;;;;;;;;;5016706;28;20096;-90
2021/01/29 03:54:23;;;;;;;;;;;;;;;;;;5000756;28;20028;-89
2021/01/29 03:56:49;;;;;;;;;;;;;;;;;;5012311;28;19999;-89
2021/01/29 03:59:16;;;;;;;;;;;;;;;;;;5018280;28;19995;-89
2021/01/29 04:01:42;;;;;;;;;;;;;;;;;;5013187;28;19988;-88
2021/01/29 04:04:08;;;;;;;;;;;;;;;;;;5022978;28;19964;-90
2021/01/29 04:06:35;;;;;;;;;;;;;;;;;;5020016;28;20003;-90
2021/01/29 04:09:02;;;;;;;;;;;;;;;;;;5004124;28;20606;-90
2021/01/29 04:11:28;;;;;;;;;;;;;;;;;;5002032;28;20019;-91
2021/01/29 04:13:54;;;;;;;;;;;;;;;;;;5001164;28;20098;-90
2021/01/29 04:16:21;;;;;;;;;;;;;;;;;;5001309;28;20295;-91
2021/01/29 04:18:47;;;;;;;;;;;;;;;;;;5000700;28;20343;-90
2021/01/29 04:21:14;;;;;;;;;;;;;;;;;;5001137;28;20135;-90
2021/01/29 04:23:40;;;;;;;;;;;;;;;;;;5001248;28;20016;-90
2021/01/29 04:26:07;;;;;;;;;;;;;;;;;;5002290;28;19970;-89
2021/01/29 04:28:33;;;;;;;;;;;;;;;;;;5019235;28;20047;-89
2021/01/29 04:31:00;;;;;;;;;;;;;;;;;;5022530;28;20030;-88
2021/01/29 04:33:26;;;;;;;;;;;;;;;;;;5022799;28;19968;-88
2021/01/29 04:35:52;;;;;;;;;;;;;;;;;;5022565;28;19999;-87
2021/01/29 04:38:19;;;;;;;;;;;;;;;;;;5022541;28;20034;-87
2021/01/29 04:40:45;;;;;;;;;;;;;;;;;;5022553;28;19987;-88
2021/01/29 04:45:56;;;;;;;;;;;;;;;;;;4998506;28;20448;-89
2021/01/29 04:48:23;;;;;;;;;;;;;;;;;;5013851;28;19953;-89
2021/01/29 04:50:49;;;;;;;;;;;;;;;;;;5008033;28;19976;-90
2021/01/29 04:53:15;;;;;;;;;;;;;;;;;;4998833;28;19981;-90
2021/01/29 04:55:42;;;;;;;;;;;;;;;;;;4998340;28;20012;-90
2021/01/29 04:58:08;;;;;;;;;;;;;;;;;;5006109;28;20051;-90
2021/01/29 05:00:37;;;;;;;;;;;;;;;;;;5029624;28;19977;-89
2021/01/29 05:03:03;;;;;;;;;;;;;;;;;;5021327;28;19966;-90
2021/01/29 05:05:32;;;;;;;;;;;;;;;;;;5021436;28;19993;-90
2021/01/29 05:07:58;;;;;;;;;;;;;;;;;;5013326;28;20934;-90
2021/01/29 05:10:25;;;;;;;;;;;;;;;;;;4998178;28;25078;-90
2021/01/29 05:12:51;;;;;;;;;;;;;;;;;;4996402;28;20004;-90
2021/01/29 05:15:17;;;;;;;;;;;;;;;;;;4998011;28;20023;-90
2021/01/29 05:17:44;;;;;;;;;;;;;;;;;;4997910;28;20467;-90
2021/01/29 05:20:11;;;;;;;;;;;;;;;;;;4998180;28;20366;-90
2021/01/29 05:22:37;;;;;;;;;;;;;;;;;;5011822;28;19993;-89
2021/01/29 05:25:04;;;;;;;;;;;;;;;;;;5018110;28;19985;-91
2021/01/29 05:27:30;;;;;;;;;;;;;;;;;;5010766;28;19980;-90
2021/01/29 05:29:57;;;;;;;;;;;;;;;;;;5014713;28;19988;-90
2021/01/29 05:32:23;;;;;;;;;;;;;;;;;;4997410;28;20007;-90
2021/01/29 05:34:50;;;;;;;;;;;;;;;;;;4997433;28;20007;-92
2021/01/29 05:37:16;;;;;;;;;;;;;;;;;;4997239;28;19992;-91
2021/01/29 05:39:43;;;;;;;;;;;;;;;;;;4999265;28;19988;-90
2021/01/29 05:42:09;;;;;;;;;;;;;;;;;;5023473;28;20078;-89
2021/01/29 05:44:36;;;;;;;;;;;;;;;;;;5024638;28;19992;-91
2021/01/29 05:47:02;;;;;;;;;;;;;;;;;;5017192;28;19998;-91
2021/01/29 05:49:29;;;;;;;;;;;;;;;;;;5005035;28;20083;-92
2021/01/29 05:52:11;;;;;;;;;;;;;;;;;;4999294;28;20323;-92
2021/01/29 05:54:37;;;;;;;;;;;;;;;;;;5008934;28;19991;-91
2021/01/29 05:57:04;;;;;;;;;;;;;;;;;;5011635;28;20455;-92
2021/01/29 05:59:30;;;;;;;;;;;;;;;;;;5004853;28;20015;-92
2021/01/29 06:01:59;;;;;;;;;;;;;;;;;;5004672;28;19973;-92
2021/01/29 06:04:25;;;;;;;;;;;;;;;;;;4997411;28;19973;-91
2021/01/29 06:06:52;;;;;;;;;;;;;;;;;;4997712;28;20393;-90
2021/01/29 06:09:23;;;;;;;;;;;;;;;;;;5019662;28;19968;-90
2021/01/29 06:14:38;;;;;;;;;;;;;;;;;;4998111;28;20087;-92
2021/01/29 06:17:13;;;;;;;;;;;;;;;;;;4998478;28;20000;-91
2021/01/29 06:19:40;;;;;;;;;;;;;;;;;;4999156;28;20008;-92
2021/01/29 06:22:06;;;;;;;;;;;;;;;;;;5000630;28;20346;-91
2021/01/29 06:27:30;;;;;;;;;;;;;;;;;;4940588;29;19997;-92
2021/01/29 12:21:38;;;;;;;;;;;;;;;;;;4999837;28;20365;-87
2021/01/29 12:24:09;;;;;;;;;;;;;;;;;;5010208;28;19980;-87
2021/01/29 12:26:36;;;;;;;;;;;;;;;;;;5014046;28;19985;-87
2021/01/29 12:29:09;;;;;;;;;;;;;;;;;;5001042;28;20032;-86
2021/01/29 12:42:26;;;;;;;;;;;;;;;;;;5017459;28;19969;-85
2021/01/29 12:44:53;;;;;;;;;;;;;;;;;;5074260;22;20035;-88
2021/01/29 12:47:19;;;;;;;;;;;;;;;;;;4999857;28;19992;-88
2021/01/29 12:49:46;;;;;;;;;;;;;;;;;;5008005;28;19972;-88
2021/01/29 12:52:37;;;;;;;;;;;;;;;;;;5016464;28;20067;-89
2021/01/29 12:55:27;;;;;;;;;;;;;;;;;;4963560;29;19991;-89
2021/01/29 13:09:12;;;;;;;;;;;;;;;;;;4957366;29;20505;-87
2021/01/29 13:14:33;;;;;;;;;;;;;;;;;;4959694;29;20012;-88
2021/01/29 13:22:44;;;;;;;;;;;;;;;;;;4958459;29;19973;-88
2021/01/29 13:33:29;;;;;;;;;;;;;;;;;;4994144;28;19968;-87
2021/01/29 13:35:58;;;;;;;;;;;;;;;;;;5043214;23;20826;-84
2021/01/29 13:38:24;;;;;;;;;;;;;;;;;;5018403;28;19960;-88
2021/01/29 13:41:04;;;;;;;;;;;;;;;;;;5007911;28;20493;-89
2021/01/29 13:43:31;;;;;;;;;;;;;;;;;;4998068;28;20010;-89
2021/01/29 13:45:58;;;;;;;;;;;;;;;;;;4997774;28;19981;-89
2021/01/29 15:28:08;;;;;;;;;;;;;;;;;;4998109;28;19999;-86
2021/01/29 15:30:35;;;;;;;;;;;;;;;;;;4999257;28;19977;-87
2021/01/29 15:33:01;;;;;;;;;;;;;;;;;;4987979;28;19976;-87
2021/01/29 15:35:28;;;;;;;;;;;;;;;;;;4999292;28;19999;-87
2021/01/29 15:38:01;;;;;;;;;;;;;;;;;;4999798;28;20087;-87
2021/01/29 15:40:27;;;;;;;;;;;;;;;;;;5005969;28;19973;-87
2021/01/29 15:42:54;;;;;;;;;;;;;;;;;;5008418;28;20365;-88
2021/01/29 15:45:21;;;;;;;;;;;;;;;;;;5021295;28;20012;-91
2021/01/29 15:47:48;;;;;;;;;;;;;;;;;;5029808;28;20028;-88
2021/01/29 15:50:14;;;;;;;;;;;;;;;;;;5032941;28;19975;-88
2021/01/29 15:52:41;;;;;;;;;;;;;;;;;;5037226;28;20036;-88
2021/01/29 15:55:07;;;;;;;;;;;;;;;;;;5037177;28;19995;-87
2021/01/29 15:57:34;;;;;;;;;;;;;;;;;;5039633;28;20047;-87
2021/01/29 16:00:01;;;;;;;;;;;;;;;;;;5034031;28;19984;-87
2021/01/29 16:02:27;;;;;;;;;;;;;;;;;;5025503;28;19976;-88
2021/01/29 16:04:54;;;;;;;;;;;;;;;;;;5024274;28;19976;-87
2021/01/29 16:07:23;;;;;;;;;;;;;;;;;;5024467;28;20691;-87
2021/01/29 16:09:49;;;;;;;;;;;;;;;;;;5013450;28;19980;-89
2021/01/29 16:12:16;;;;;;;;;;;;;;;;;;5015080;28;19995;-85
2021/01/29 16:14:42;;;;;;;;;;;;;;;;;;5020504;28;19981;-86
2021/01/29 16:17:09;;;;;;;;;;;;;;;;;;5021454;28;19997;-86
2021/01/29 16:19:36;;;;;;;;;;;;;;;;;;5013621;28;19977;-86
2021/01/29 16:22:03;;;;;;;;;;;;;;;;;;5005090;28;19980;-85
2021/01/29 16:24:29;;;;;;;;;;;;;;;;;;5006558;28;19981;-86
2021/01/29 16:26:56;;;;;;;;;;;;;;;;;;4950124;28;1312212;-86
2021/01/29 16:29:22;;;;;;;;;;;;;;;;;;4995099;28;19977;-86
2021/01/29 16:31:49;;;;;;;;;;;;;;;;;;5009256;28;19961;-85
2021/01/29 16:34:15;;;;;;;;;;;;;;;;;;5019266;28;19983;-86
2021/01/29 16:36:43;;;;;;;;;;;;;;;;;;5018538;28;20000;-87
2021/01/29 16:39:09;;;;;;;;;;;;;;;;;;5016868;28;19967;-87
2021/01/29 16:41:35;;;;;;;;;;;;;;;;;;5030775;28;19964;-88
2021/01/29 16:44:10;;;;;;;;;;;;;;;;;;5020581;28;19977;-87
2021/01/29 16:46:36;;;;;;;;;;;;;;;;;;5025457;28;19975;-89
2021/01/29 16:49:03;;;;;;;;;;;;;;;;;;5041816;28;19970;-86
2021/01/29 16:51:29;;;;;;;;;;;;;;;;;;5040902;28;20020;-87
2021/01/29 16:53:56;;;;;;;;;;;;;;;;;;5031948;28;19974;-87
2021/01/29 16:56:29;;;;;;;;;;;;;;;;;;5013762;28;20000;-88
2021/01/29 16:58:56;;;;;;;;;;;;;;;;;;5008973;28;20063;-87
2021/01/29 17:01:26;;;;;;;;;;;;;;;;;;4982037;28;20457;-87
2021/01/29 17:03:53;;;;;;;;;;;;;;;;;;4996144;28;19976;-86
2021/01/29 17:06:23;;;;;;;;;;;;;;;;;;5000585;28;20000;-85
2021/01/29 17:08:50;;;;;;;;;;;;;;;;;;5010548;28;19999;-87
2021/01/29 17:11:16;;;;;;;;;;;;;;;;;;4997674;28;20435;-87
2021/01/29 17:13:43;;;;;;;;;;;;;;;;;;5012893;28;19977;-86
2021/01/29 17:16:10;;;;;;;;;;;;;;;;;;4998585;28;20038;-85
2021/01/29 17:18:36;;;;;;;;;;;;;;;;;;4994517;28;20462;-87
2021/01/29 17:21:03;;;;;;;;;;;;;;;;;;4999827;28;20347;-87
2021/01/29 17:23:29;;;;;;;;;;;;;;;;;;5000258;28;20028;-87
2021/01/29 17:25:56;;;;;;;;;;;;;;;;;;4993094;28;19973;-87
2021/01/29 17:28:22;;;;;;;;;;;;;;;;;;4996053;28;19993;-88
2021/01/29 17:30:49;;;;;;;;;;;;;;;;;;4999963;28;19976;-87
2021/01/29 17:33:15;;;;;;;;;;;;;;;;;;5000615;28;20447;-88
2021/01/29 17:35:42;;;;;;;;;;;;;;;;;;4998680;28;19992;-87
2021/01/29 17:38:10;;;;;;;;;;;;;;;;;;4995716;28;20080;-87
2021/01/29 17:40:37;;;;;;;;;;;;;;;;;;4999193;28;19977;-88
2021/01/29 17:43:03;;;;;;;;;;;;;;;;;;5002124;28;20422;-87
2021/01/29 17:45:30;;;;;;;;;;;;;;;;;;5003424;28;19973;-90
2021/01/29 17:47:57;;;;;;;;;;;;;;;;;;4992287;28;19993;-87
2021/01/29 17:50:24;;;;;;;;;;;;;;;;;;5003987;28;20009;-89
2021/01/29 17:52:50;;;;;;;;;;;;;;;;;;5000528;28;21432;-87
2021/01/29 17:55:17;;;;;;;;;;;;;;;;;;5000203;28;20424;-88
2021/01/29 17:57:43;;;;;;;;;;;;;;;;;;4994201;28;19995;-88
2021/01/29 18:00:10;;;;;;;;;;;;;;;;;;5001171;28;20036;-88
2021/01/29 18:02:36;;;;;;;;;;;;;;;;;;4998920;28;30000;-88
2021/01/29 18:05:05;;;;;;;;;;;;;;;;;;4998329;28;26352;-88
2021/01/29 18:07:32;;;;;;;;;;;;;;;;;;4998812;28;19999;-87
2021/01/29 18:09:59;;;;;;;;;;;;;;;;;;4992617;28;19976;-86
2021/01/29 18:12:25;;;;;;;;;;;;;;;;;;5002787;28;20046;-86
2021/01/29 18:14:52;;;;;;;;;;;;;;;;;;4998152;28;19979;-87
2021/01/29 18:17:18;;;;;;;;;;;;;;;;;;4987595;28;20022;-87
2021/01/29 18:19:58;;;;;;;;;;;;;;;;;;5003026;28;19973;-89
2021/01/29 18:22:24;;;;;;;;;;;;;;;;;;5008853;28;19991;-87
2021/01/29 18:27:35;;;;;;;;;;;;;;;;;;5015084;28;19988;-87
2021/01/29 18:30:01;;;;;;;;;;;;;;;;;;4999629;28;19980;-87
2021/01/29 18:32:28;;;;;;;;;;;;;;;;;;5015204;28;19999;-87
2021/01/29 18:34:54;;;;;;;;;;;;;;;;;;5014250;28;19977;-87
2021/01/29 18:37:21;;;;;;;;;;;;;;;;;;5005990;28;19988;-86
2021/01/29 18:39:47;;;;;;;;;;;;;;;;;;5002230;28;19976;-87
2021/01/29 18:42:14;;;;;;;;;;;;;;;;;;4991746;28;19969;-88
2021/01/29 18:44:40;;;;;;;;;;;;;;;;;;5008079;28;20011;-86
2021/01/29 18:47:07;;;;;;;;;;;;;;;;;;4994135;28;19985;-88
2021/01/29 18:49:35;;;;;;;;;;;;;;;;;;4997890;28;19973;-89
2021/01/29 18:52:01;;;;;;;;;;;;;;;;;;4996955;28;19976;-88
2021/01/29 18:54:28;;;;;;;;;;;;;;;;;;4979868;28;19977;-89
2021/01/29 18:56:54;;;;;;;;;;;;;;;;;;4988745;28;19993;-87
2021/01/29 18:59:20;;;;;;;;;;;;;;;;;;4998157;28;19983;-87
2021/01/29 19:04:31;;;;;;;;;;;;;;;;;;4994385;28;20020;-87
2021/01/29 19:06:58;;;;;;;;;;;;;;;;;;4987505;28;20039;-87
2021/01/29 19:09:24;;;;;;;;;;;;;;;;;;4988375;28;20026;-88
2021/01/29 19:11:50;;;;;;;;;;;;;;;;;;4996704;28;19972;-88
2021/01/29 19:14:17;;;;;;;;;;;;;;;;;;4997573;28;19949;-89
2021/01/29 19:16:43;;;;;;;;;;;;;;;;;;5011824;28;19998;-88
2021/01/29 19:19:21;;;;;;;;;;;;;;;;;;5004244;28;20026;-88
2021/01/29 19:21:48;;;;;;;;;;;;;;;;;;4999682;28;19972;-88
2021/01/29 19:24:20;;;;;;;;;;;;;;;;;;4996476;28;20015;-88
2021/01/29 19:26:47;;;;;;;;;;;;;;;;;;4995130;28;19962;-88
2021/01/29 19:29:16;;;;;;;;;;;;;;;;;;4996991;28;20017;-88
2021/01/29 19:31:43;;;;;;;;;;;;;;;;;;4996561;28;20465;-88
2021/01/29 19:34:10;;;;;;;;;;;;;;;;;;4996591;28;19973;-88
2021/01/29 19:36:36;;;;;;;;;;;;;;;;;;4980005;28;19997;-88
2021/01/29 19:39:03;;;;;;;;;;;;;;;;;;4984656;28;19975;-88
2021/01/29 19:41:29;;;;;;;;;;;;;;;;;;4997841;28;20082;-89
2021/01/29 19:43:56;;;;;;;;;;;;;;;;;;4999805;28;20445;-90
2021/01/29 19:46:22;;;;;;;;;;;;;;;;;;4994378;28;19996;-89
2021/01/29 19:48:49;;;;;;;;;;;;;;;;;;5018465;28;19976;-88
2021/01/29 19:51:15;;;;;;;;;;;;;;;;;;5020972;28;19982;-89
2021/01/29 19:53:42;;;;;;;;;;;;;;;;;;5021771;28;20437;-88
2021/01/29 19:56:08;;;;;;;;;;;;;;;;;;5024461;28;19988;-88
2021/01/29 19:58:35;;;;;;;;;;;;;;;;;;5025054;28;20050;-90
2021/01/29 20:01:01;;;;;;;;;;;;;;;;;;5037611;28;19996;-87
2021/01/29 20:03:28;;;;;;;;;;;;;;;;;;5036822;28;19960;-87
2021/01/29 20:05:57;;;;;;;;;;;;;;;;;;5029235;28;19983;-87
2021/01/29 20:08:24;;;;;;;;;;;;;;;;;;5021774;28;19992;-87
2021/01/29 20:10:50;;;;;;;;;;;;;;;;;;5024540;28;19953;-87
2021/01/29 20:13:16;;;;;;;;;;;;;;;;;;5016038;28;19993;-87
2021/01/29 20:15:45;;;;;;;;;;;;;;;;;;5000563;28;19999;-87
2021/01/29 20:18:11;;;;;;;;;;;;;;;;;;5001600;28;20014;-86
2021/01/29 20:20:38;;;;;;;;;;;;;;;;;;4999363;28;19976;-87
2021/01/29 20:23:04;;;;;;;;;;;;;;;;;;5001401;28;19981;-88
2021/01/29 20:25:31;;;;;;;;;;;;;;;;;;5002057;28;19987;-88
2021/01/29 20:27:57;;;;;;;;;;;;;;;;;;5001375;28;19997;-88
2021/01/29 20:30:24;;;;;;;;;;;;;;;;;;4999403;28;19984;-88
2021/01/29 20:32:50;;;;;;;;;;;;;;;;;;5000171;28;20421;-87
2021/01/29 20:35:17;;;;;;;;;;;;;;;;;;5000402;28;20154;-86
2021/01/29 20:37:53;;;;;;;;;;;;;;;;;;5000598;28;19995;-88
2021/01/29 20:43:04;;;;;;;;;;;;;;;;;;5001335;28;20011;-88
2021/01/29 21:08:49;;;;;;;;;;;;;;;;;;4998909;28;19980;-88
2021/01/29 21:11:16;;;;;;;;;;;;;;;;;;5001896;28;19976;-90
2021/01/29 21:13:42;;;;;;;;;;;;;;;;;;5004228;28;19973;-90
2021/01/29 21:16:08;;;;;;;;;;;;;;;;;;5003477;28;19993;-89
2021/01/29 21:18:35;;;;;;;;;;;;;;;;;;5003215;28;19976;-90
2021/01/29 21:21:02;;;;;;;;;;;;;;;;;;5004182;28;19976;-90
2021/01/29 21:23:30;;;;;;;;;;;;;;;;;;5004182;28;19977;-90
2021/01/29 21:25:56;;;;;;;;;;;;;;;;;;5005970;28;19983;-89
2021/01/29 21:28:23;;;;;;;;;;;;;;;;;;5004816;28;19928;-89
2021/01/29 21:30:49;;;;;;;;;;;;;;;;;;5002145;28;19977;-88
2021/01/29 21:33:16;;;;;;;;;;;;;;;;;;5004125;28;19928;-88
2021/01/29 21:35:42;;;;;;;;;;;;;;;;;;5003477;28;20077;-88
2021/01/29 21:38:09;;;;;;;;;;;;;;;;;;5003446;28;19996;-87
2021/01/29 21:40:35;;;;;;;;;;;;;;;;;;5004562;28;19995;-87
2021/01/29 21:43:02;;;;;;;;;;;;;;;;;;5002769;28;19969;-88
2021/01/29 21:45:30;;;;;;;;;;;;;;;;;;4999975;28;20002;-87
2021/01/29 21:47:57;;;;;;;;;;;;;;;;;;5002724;28;19985;-87
2021/01/29 21:50:23;;;;;;;;;;;;;;;;;;5018219;28;20060;-88
2021/01/29 21:52:49;;;;;;;;;;;;;;;;;;5004377;28;19926;-89
2021/01/29 21:55:16;;;;;;;;;;;;;;;;;;5000004;28;19921;-89
2021/01/29 21:57:42;;;;;;;;;;;;;;;;;;4999921;28;19922;-88
2021/01/29 22:00:09;;;;;;;;;;;;;;;;;;5001379;28;19922;-89
2021/01/29 22:02:36;;;;;;;;;;;;;;;;;;4991620;28;19979;-88
2021/01/29 22:05:04;;;;;;;;;;;;;;;;;;5002004;28;19980;-88
2021/01/29 22:07:31;;;;;;;;;;;;;;;;;;5002109;28;20007;-88
2021/01/29 22:09:57;;;;;;;;;;;;;;;;;;5004003;28;19976;-88
2021/01/29 22:12:24;;;;;;;;;;;;;;;;;;5002169;28;20012;-88
2021/01/29 22:14:50;;;;;;;;;;;;;;;;;;5001861;28;19980;-88
2021/01/29 22:17:18;;;;;;;;;;;;;;;;;;5003763;28;19995;-88
2021/01/29 22:19:44;;;;;;;;;;;;;;;;;;5002312;28;19975;-87
2021/01/29 22:22:11;;;;;;;;;;;;;;;;;;5003978;28;19980;-88
2021/01/29 22:24:43;;;;;;;;;;;;;;;;;;5002796;28;19981;-88
2021/01/29 22:27:22;;;;;;;;;;;;;;;;;;5004175;28;19993;-88
2021/01/29 22:29:49;;;;;;;;;;;;;;;;;;5009867;28;19973;-87
2021/01/29 22:32:15;;;;;;;;;;;;;;;;;;5005110;28;20326;-87
2021/01/29 22:34:42;;;;;;;;;;;;;;;;;;5001735;28;19973;-87
2021/01/29 22:37:10;;;;;;;;;;;;;;;;;;5001832;28;20047;-88
2021/01/29 22:39:36;;;;;;;;;;;;;;;;;;5006570;28;20429;-90
2021/01/29 22:42:05;;;;;;;;;;;;;;;;;;5002748;28;19976;-88
2021/01/29 22:44:31;;;;;;;;;;;;;;;;;;5002268;28;19973;-87
2021/01/29 22:46:57;;;;;;;;;;;;;;;;;;5000382;28;20071;-86
2021/01/29 22:49:24;;;;;;;;;;;;;;;;;;5014486;28;20052;-88
2021/01/29 22:51:50;;;;;;;;;;;;;;;;;;5003627;28;19977;-88
2021/01/29 22:54:19;;;;;;;;;;;;;;;;;;4999006;28;19976;-88
2021/01/29 22:56:45;;;;;;;;;;;;;;;;;;4994540;28;19988;-88
2021/01/29 22:59:12;;;;;;;;;;;;;;;;;;5009181;28;19969;-88
2021/01/29 23:01:38;;;;;;;;;;;;;;;;;;4999806;28;20000;-87
2021/01/29 23:04:05;;;;;;;;;;;;;;;;;;5003943;28;19973;-89
2021/01/29 23:06:31;;;;;;;;;;;;;;;;;;4997971;28;20404;-88
2021/01/29 23:08:58;;;;;;;;;;;;;;;;;;4999812;28;20414;-88
2021/01/29 23:11:24;;;;;;;;;;;;;;;;;;4998998;28;19976;-88
2021/01/29 23:13:51;;;;;;;;;;;;;;;;;;5002203;28;19973;-88
2021/01/29 23:16:21;;;;;;;;;;;;;;;;;;4998018;28;20489;-87
2021/01/29 23:18:50;;;;;;;;;;;;;;;;;;4998590;28;19976;-88
2021/01/29 23:21:17;;;;;;;;;;;;;;;;;;4999129;28;19969;-88
2021/01/29 23:23:43;;;;;;;;;;;;;;;;;;5004192;28;19995;-85
2021/01/29 23:26:10;;;;;;;;;;;;;;;;;;5018497;28;19998;-86
2021/01/29 23:28:36;;;;;;;;;;;;;;;;;;5036971;28;20032;-86
2021/01/29 23:31:04;;;;;;;;;;;;;;;;;;5020227;28;19977;-87
2021/01/29 23:33:30;;;;;;;;;;;;;;;;;;5004875;28;19998;-86
2021/01/29 23:35:56;;;;;;;;;;;;;;;;;;5003119;28;20000;-86
2021/01/29 23:38:23;;;;;;;;;;;;;;;;;;5011843;28;19988;-86
2021/01/29 23:40:50;;;;;;;;;;;;;;;;;;5007946;28;20024;-87
2021/01/29 23:43:16;;;;;;;;;;;;;;;;;;5006153;28;20039;-85
2021/01/29 23:45:42;;;;;;;;;;;;;;;;;;5004434;28;20011;-85
2021/01/29 23:48:09;;;;;;;;;;;;;;;;;;5006807;28;19991;-86
2021/01/29 23:50:35;;;;;;;;;;;;;;;;;;5004131;28;19973;-85
2021/01/29 23:53:02;;;;;;;;;;;;;;;;;;5003732;28;19968;-84
2021/01/29 23:55:28;;;;;;;;;;;;;;;;;;5013155;28;19996;-84
2021/01/29 23:57:55;;;;;;;;;;;;;;;;;;5016314;28;20034;-85
